Nathaniel B. Palmer — WBP3210 — position and weather

sailwx.info

Track history (hours):
 
Tides and Currents Weather Stations Pressure Air Temp Water Temp Dewpoint Dewpoint Depression Visibility Wind Speed Wind Dir Waves Ship Positions

Oceanographic research ship Nathaniel B. Palmer (USA)

Contact: Ethan Norris, ethan.norris.contractor@usap.gov

Detailed information on ship capabilities available from University of Delaware's Ocean Information Center and ARCUS's ALIAS (Arctic Logistics Information and Support) project.

Owner: OFFSHORE SERVICE VESSELS, GALLIANO, LA. More information available from US FCC via Universal Licensing System and Coast Guard Vessel Documentation Center.

Last reported at 2017-Feb-24 07:00 UTC. Time now 2017-Feb-24 08:22 UTC.
Position S 56°36' W 170°00'.

Type: Other ship. MMSI: 366610000.

Wind from 080 at 11 knots

Barometer 1006.4 mb
Air temperature 7.3 ° C
Water temperature 8.5 ° C

Date/timePositionNaut miles runAvg speedWind from/ knotsBaromVisibWave heightAir tempDewpointWater temp
2017-Feb-24 07:00S 56°36' W 170°00'1212.0 080 / 111006.4 7.3 8.5
2017-Feb-24 06:00S 56°24' W 170°00'6 6.0 110 / 111006.0 7.4 8.4
2017-Feb-24 05:00S 56°18' W 170°00'1212.0 130 / 101005.5 7.4 8.6
2017-Feb-24 04:00S 56°06' W 170°00'1212.0 130 / 141004.6 7.4 8.8
2017-Feb-24 03:00S 55°54' W 170°00'6 6.0 160 / 131004.0 7.6 8.9
2017-Feb-24 02:00S 56°00' W 170°00'6 6.0 160 / 131003.2 7.6 8.9
2017-Feb-24 01:00S 56°06' W 170°00'0 0.0 150 / 151002.7 8.0 8.7
2017-Feb-24 00:00S 56°06' W 170°00'0 0.0 170 / 141002.3 8.5 8.5
2017-Feb-23 23:00S 56°06' W 170°00'0 0.0 180 / 141001.5 8.3 8.5
2017-Feb-23 22:00S 56°06' W 170°00'0 0.0 170 / 181000.7 7.6 8.5
2017-Feb-23 21:00S 56°06' W 170°00'0 0.0 180 / 20999.8 7.4 8.5
2017-Feb-23 20:00S 56°06' W 170°00'0 0.0 190 / 23998.7 7.3 8.5
2017-Feb-23 19:00S 56°06' W 170°00'0 0.0 200 / 27997.8 7.2 8.5
2017-Feb-23 18:00S 56°06' W 170°00'0 0.0 210 / 28997.0 7.2 8.4
2017-Feb-23 17:00S 56°06' W 170°00'0 0.0 210 / 28996.4 7.1 8.5
2017-Feb-23 16:00S 56°06' W 170°00'0 0.0 210 / 29996.1 7.0 8.5
2017-Feb-23 15:00S 56°06' W 170°00'0 0.0 210 / 30995.8 7.1 8.5
2017-Feb-23 14:00S 56°06' W 170°00'3 3.3 220 / 30995.6 7.4 8.6
2017-Feb-23 13:00S 56°06' W 169°54'0 0.0 220 / 30995.2 7.4 8.6
2017-Feb-23 12:00S 56°06' W 169°54'0 0.0 210 / 29995.2 7.5 8.5
2017-Feb-23 11:00S 56°06' W 169°54'3 3.3 210 / 29994.7 7.8 8.5
2017-Feb-23 10:00S 56°06' W 170°00'0 0.0 220 / 24994.3 8.2 8.6
2017-Feb-23 09:00S 56°06' W 170°00'0 0.0 230 / 21994.2 8.4 8.5
2017-Feb-23 08:00S 56°06' W 170°00'0 0.0 230 / 16993.9 8.6 8.5
2017-Feb-23 07:00S 56°06' W 170°00'0 0.0 230 / 15993.5 8.5 8.6
2017-Feb-23 06:00S 56°06' W 170°00'0 0.0 230 / 13993.2 8.7 8.6
2017-Feb-23 05:00S 56°06' W 170°00'0 0.0 250 / 11993.3 8.7 8.6
2017-Feb-23 04:00S 56°06' W 170°00'1212.0 270 / 11993.2 8.7 8.7
2017-Feb-23 03:00S 56°18' W 170°00'6 6.0 270 / 12993.3 8.4 8.5
2017-Feb-23 02:00S 56°24' W 170°00'1212.0 260 / 13993.6 8.1 8.4
2017-Feb-23 01:00S 56°36' W 170°00'1212.0 280 / 17993.9 8.1 8.5
2017-Feb-23 00:00S 56°48' W 170°00'6 6.0 290 / 18994.1 8.3 7.8
2017-Feb-22 23:00S 56°54' W 170°00'1212.0 320 / 19994.4 8.4 7.9
2017-Feb-22 22:00S 57°06' W 170°00'0 0.0 340 / 19994.9 8.4 7.8
2017-Feb-22 21:00S 57°06' W 170°00'0 0.0 340 / 19996.0 8.4 7.7
2017-Feb-22 20:00S 57°06' W 170°00'0 0.0 340 / 20997.0 8.4 7.7
2017-Feb-22 19:00S 57°06' W 170°00'0 0.0 340 / 21997.9 8.3 7.7
2017-Feb-22 18:00S 57°06' W 170°00'0 0.0 340 / 20999.0 8.3 7.7
2017-Feb-22 17:00S 57°06' W 170°00'0 0.0 330 / 201000.3 8.4 7.7
2017-Feb-22 16:00S 57°06' W 170°00'0 0.0 320 / 221001.2 8.5 7.7
2017-Feb-22 15:00S 57°06' W 170°00'0 0.0 320 / 201002.3 8.6 7.7
2017-Feb-22 14:00S 57°06' W 170°00'0 0.0 330 / 191003.3 8.5 7.7
2017-Feb-22 13:00S 57°06' W 170°00'0 0.0 340 / 181004.0 8.3 7.8
2017-Feb-22 12:00S 57°06' W 170°00'0 0.0 340 / 171004.8 8.2 7.8
2017-Feb-22 11:00S 57°06' W 170°00'0 0.0 340 / 151005.8 8.2 7.8
2017-Feb-22 10:00S 57°06' W 170°00'0 0.0 350 / 151006.9 8.1 7.9
2017-Feb-22 09:00S 57°06' W 170°00'0 0.0 350 / 131007.7 8.0 7.8
2017-Feb-22 08:00S 57°06' W 170°00'0 0.0 350 / 111008.4 8.0 7.8
2017-Feb-22 07:00S 57°06' W 170°00'6 6.0 330 / 121009.0 8.0 7.9
2017-Feb-22 06:00S 57°12' W 170°00'6 6.0 320 / 111009.3 7.9 7.9
2017-Feb-22 05:00S 57°18' W 170°00'1212.0 310 / 111009.7 7.9 7.6
2017-Feb-22 04:00S 57°30' W 170°00'1212.0 290 / 111010.0 7.6 7.4
2017-Feb-22 03:00S 57°42' W 170°00'7 6.8 280 / 131010.1 7.3 7.3
2017-Feb-22 02:00S 57°48' W 170°06'6 6.0 270 / 171010.5 7.0 7.0
2017-Feb-22 01:00S 57°54' W 170°06'0 0.0 270 / 191010.8 7.4 6.9
2017-Feb-22 00:00S 57°54' W 170°06'0 0.0 270 / 191010.6 7.4 6.9
2017-Feb-21 23:00S 57°54' W 170°06'0 0.0 270 / 201010.3 7.3 6.8
2017-Feb-21 22:00S 57°54' W 170°06'0 0.0 270 / 221010.2 7.2 6.8
2017-Feb-21 21:00S 57°54' W 170°06'0 0.0 260 / 211010.0 7.2 6.8
2017-Feb-21 20:00S 57°54' W 170°06'0 0.0 260 / 221010.1 7.1 6.8
2017-Feb-21 19:00S 57°54' W 170°06'0 0.0 260 / 231009.9 7.0 6.8
2017-Feb-21 18:00S 57°54' W 170°06'0 0.0 260 / 241010.0 6.7 6.8
2017-Feb-21 17:00S 57°54' W 170°06'0 0.0 260 / 251010.0 6.5 6.8
2017-Feb-21 16:00S 57°54' W 170°06'0 0.0 260 / 271010.1 6.4 6.8
2017-Feb-21 15:00S 57°54' W 170°06'0 0.0 260 / 271010.5 6.4 6.9
2017-Feb-21 14:00S 57°54' W 170°06'0 0.0 260 / 261010.3 6.3 6.9
2017-Feb-21 13:00S 57°54' W 170°06'0 0.0 270 / 271010.5 6.2 6.9
2017-Feb-21 12:00S 57°54' W 170°06'0 0.0 270 / 281011.1 6.1 6.9
2017-Feb-21 11:00S 57°54' W 170°06'0 0.0 270 / 261011.2 6.0 6.9
2017-Feb-21 10:00S 57°54' W 170°06'6 6.0 270 / 271011.5 5.8 6.9
2017-Feb-21 09:00S 58°00' W 170°06'7 6.8 270 / 261011.4 5.6 6.8
2017-Feb-21 08:00S 58°06' W 170°00'1212.0 260 / 261011.2 5.6 6.9
2017-Feb-21 07:00S 58°18' W 170°00'6 6.0 260 / 261010.9 5.7 6.8
2017-Feb-21 06:00S 58°24' W 170°00'1212.0 260 / 261010.7 5.6 6.8
2017-Feb-21 05:00S 58°36' W 170°00'1212.0 260 / 241010.8 5.7 6.7
2017-Feb-21 04:00S 58°48' W 170°00'6 6.0 260 / 231010.9 5.8 6.5
2017-Feb-21 03:00S 58°54' W 170°00'0 0.0 260 / 261011.2 5.7 6.5
2017-Feb-21 02:00S 58°54' W 170°00'0 0.0 260 / 271012.0 5.7 6.4
2017-Feb-21 01:00S 58°54' W 170°00'0 0.0 260 / 261012.6 5.6 6.5
2017-Feb-21 00:00S 58°54' W 170°00'0 0.0 260 / 241013.1 5.4 6.5
2017-Feb-20 23:00S 58°54' W 170°00'0 0.0 250 / 231013.9 5.1 6.4
2017-Feb-20 22:00S 58°54' W 170°00'6 6.0 240 / 191013.8 5.2 6.4
2017-Feb-20 21:00S 59°00' W 170°00'0 0.0 240 / 201014.2 5.8 6.4
2017-Feb-20 20:00S 59°00' W 170°00'0 0.0 240 / 221014.2 5.3 6.4
2017-Feb-20 19:00S 59°00' W 170°00'0 0.0 230 / 211014.3 5.3 6.4
2017-Feb-20 18:00S 59°00' W 170°00'0 0.0 220 / 231014.5 5.3 6.4
2017-Feb-20 17:00S 59°00' W 170°00'0 0.0 220 / 261014.3 5.4 6.4
2017-Feb-20 16:00S 59°00' W 170°00'0 0.0 230 / 271014.3 5.5 6.4
2017-Feb-20 15:00S 59°00' W 170°00'6 6.0 220 / 251014.5 5.5 6.4
2017-Feb-20 14:00S 58°54' W 170°00'0 0.0 230 / 261014.4 5.7 6.5
2017-Feb-20 13:00S 58°54' W 170°00'0 0.0 230 / 261014.2 5.6 6.4
2017-Feb-20 12:00S 58°54' W 170°00'0 0.0 230 / 281013.8 5.8 6.5
2017-Feb-20 11:00S 58°54' W 170°00'0 0.0 230 / 271013.3 6.0 6.5
2017-Feb-20 10:00S 58°54' W 170°00'0 0.0 240 / 291013.2 6.1 6.5
2017-Feb-20 09:00S 58°54' W 170°00'0 0.0 230 / 301013.2 6.0 6.5
2017-Feb-20 08:00S 58°54' W 170°00'0 0.0 230 / 301012.8 6.3 6.5
2017-Feb-20 07:00S 58°54' W 170°00'0 0.0 250 / 281012.4 6.6 6.5
2017-Feb-20 06:00S 58°54' W 170°00'0 0.0 260 / 281012.1 6.8 6.5
2017-Feb-20 05:00S 58°54' W 170°00'0 0.0 260 / 271012.1 6.9 6.5
2017-Feb-20 04:00S 58°54' W 170°00'6 6.0 260 / 271012.3 6.8 6.5
2017-Feb-20 03:00S 59°00' W 170°00'0 0.0 270 / 231012.4 6.5 6.5
2017-Feb-20 02:00S 59°00' W 170°00'0 0.0 260 / 241012.7 6.5 6.5
2017-Feb-20 01:00S 59°00' W 170°00'0 0.0 240 / 261012.7 6.5 6.5
2017-Feb-20 00:00S 59°00' W 170°00'0 0.0 240 / 251012.6 6.4 6.5
2017-Feb-19 23:00S 59°00' W 170°00'0 0.0 250 / 241012.1 6.6 6.4
2017-Feb-19 22:00S 59°00' W 170°00'0 0.0 250 / 241011.9 6.8 6.4
2017-Feb-19 21:00S 59°00' W 170°00'6 6.0 250 / 251011.8 6.8 6.4
2017-Feb-19 20:00S 58°54' W 170°00'0 0.0 260 / 261011.6 7.0 6.4
2017-Feb-19 19:00S 58°54' W 170°00'6 6.0 270 / 271011.2 7.2 6.4
2017-Feb-19 18:00S 59°00' W 170°00'6 6.0 280 / 291011.1 6.9 6.4
2017-Feb-19 17:00S 59°06' W 170°00'1212.0 280 / 301010.8 6.8 6.4
2017-Feb-19 16:00S 59°18' W 170°00'6 6.0 290 / 291010.7 6.8 6.3
2017-Feb-19 15:00S 59°24' W 170°00'1212.0 280 / 291010.9 6.8 6.2
2017-Feb-19 14:00S 59°36' W 170°00'1212.0 280 / 291011.0 6.7 6.1
2017-Feb-19 13:00S 59°48' W 170°00'6 6.0 290 / 291011.1 6.6 6.1
2017-Feb-19 12:00S 59°54' W 170°00'0 0.0 290 / 301011.6 6.7 6.0
2017-Feb-19 11:00S 59°54' W 170°00'0 0.0 290 / 281012.4 6.8 6.0
2017-Feb-19 10:00S 59°54' W 170°00'0 0.0 290 / 291013.1 6.8 5.9
2017-Feb-19 09:00S 59°54' W 170°00'0 0.0 290 / 281013.8 6.8 5.9
2017-Feb-19 08:00S 59°54' W 170°00'0 0.0 300 / 281014.4 6.8 5.9
2017-Feb-19 07:00S 59°54' W 170°00'0 0.0 290 / 271015.0 6.7 5.9
2017-Feb-19 06:00S 59°54' W 170°00'0 0.0 290 / 271015.6 6.7 5.9
2017-Feb-19 05:00S 59°54' W 170°00'0 0.0 290 / 271016.5 6.7 5.9
2017-Feb-19 04:00S 59°54' W 170°00'0 0.0 290 / 261017.0 6.7 5.9
2017-Feb-19 03:00S 59°54' W 170°00'0 0.0 290 / 271017.2 6.7 5.9
2017-Feb-19 02:00S 59°54' W 170°00'0 0.0 290 / 271017.6 6.7 6.0
2017-Feb-19 01:00S 59°54' W 170°00'0 0.0 290 / 271017.9 6.9 6.0
2017-Feb-19 00:00S 59°54' W 170°00'0 0.0 280 / 291018.1 7.1 6.0
2017-Feb-18 23:00S 59°54' W 170°00'0 0.0 280 / 291018.2 7.0 6.0
2017-Feb-18 22:00S 59°54' W 170°00'0 0.0 280 / 291018.1 6.9 6.0
2017-Feb-18 21:00S 59°54' W 170°00'0 0.0 290 / 281017.9 6.7 6.0
2017-Feb-18 20:00S 59°54' W 170°00'0 0.0 280 / 291017.8 6.5 6.0
2017-Feb-18 19:00S 59°54' W 170°00'0 0.0 280 / 281017.7 6.5 6.0
2017-Feb-18 18:00S 59°54' W 170°00'0 0.0 290 / 271017.5 6.3 6.0
2017-Feb-18 17:00S 59°54' W 170°00'0 0.0 290 / 261017.4 6.4 6.0
2017-Feb-18 16:00S 59°54' W 170°00'0 0.0 280 / 261017.4 6.5 6.0
2017-Feb-18 15:00S 59°54' W 170°00'0 0.0 280 / 271017.5 6.6 6.0
2017-Feb-18 14:00S 59°54' W 170°00'0 0.0 280 / 301017.3 6.8 6.0
2017-Feb-18 13:00S 59°54' W 170°00'0 0.0 280 / 301016.9 6.9 6.0
2017-Feb-18 12:00S 59°54' W 170°00'0 0.0 280 / 311016.8 7.1 6.0
2017-Feb-18 11:00S 59°54' W 170°00'0 0.0 280 / 321016.4 7.2 6.0
2017-Feb-18 10:00S 59°54' W 170°00'0 0.0 290 / 321015.9 7.3 6.0
2017-Feb-18 09:00S 59°54' W 170°00'0 0.0 290 / 321015.9 7.3 6.0
2017-Feb-18 08:00S 59°54' W 170°00'0 0.0 300 / 321016.1 7.1 6.0
2017-Feb-18 07:00S 59°54' W 170°00'0 0.0 310 / 291016.5 6.6 6.0
2017-Feb-18 06:00S 59°54' W 170°00'0 0.0 310 / 271017.5 6.5 5.9
2017-Feb-18 05:00S 59°54' W 170°00'0 0.0 310 / 241018.6 6.4 5.9
2017-Feb-18 04:00S 59°54' W 170°00'0 0.0 310 / 221019.0 6.2 5.9
2017-Feb-18 03:00S 59°54' W 170°00'0 0.0 310 / 221019.8 6.2 6.0
2017-Feb-18 02:00S 59°54' W 170°00'0 0.0 300 / 241020.4 6.5 6.0
2017-Feb-18 01:00S 59°54' W 170°00'0 0.0 300 / 221020.6 6.5 6.0
2017-Feb-18 00:00S 59°54' W 170°00'0 0.0 300 / 221020.6 6.2 6.0
2017-Feb-17 23:00S 59°54' W 170°00'0 0.0 300 / 201020.7 6.1 5.9
2017-Feb-17 22:00S 59°54' W 170°00'0 0.0 290 / 181020.9 5.9 5.9
2017-Feb-17 21:00S 59°54' W 170°00'0 0.0 280 / 181020.8 6.0 5.9
2017-Feb-17 20:00S 59°54' W 170°00'0 0.0 280 / 181020.7 6.1 5.8
2017-Feb-17 19:00S 59°54' W 170°00'0 0.0 280 / 171020.2 6.1 5.8
2017-Feb-17 18:00S 59°54' W 170°00'6 6.0 270 / 191020.0 5.9 5.9
2017-Feb-17 17:00S 60°00' W 170°00'1212.4 280 / 241018.8 5.8 5.9
2017-Feb-17 16:00S 60°12' W 170°06'1212.0 290 / 231018.1 6.1 5.6
2017-Feb-17 15:00S 60°24' W 170°06'7 6.7 300 / 251017.5 6.0 5.5
2017-Feb-17 14:00S 60°30' W 170°12'1212.4 310 / 261016.9 6.0 5.5
2017-Feb-17 13:00S 60°42' W 170°18'6 6.0 310 / 261016.7 5.9 5.3
2017-Feb-17 12:00S 60°48' W 170°18'0 0.0 310 / 221017.0 5.8 5.0
2017-Feb-17 11:00S 60°48' W 170°18'0 0.0 320 / 221017.2 5.7 5.1
2017-Feb-17 06:00S 60°48' W 170°18'0 0.0 290 / 171016.7 4.5 5.0
2017-Feb-17 05:00S 60°48' W 170°18'0 0.0 280 / 161016.3 4.7 5.1
2017-Feb-17 04:00S 60°48' W 170°18'0 0.0 270 / 181016.0 5.0 5.1
2017-Feb-17 03:00S 60°48' W 170°18'0 0.0 260 / 211015.5 5.0 5.0
2017-Feb-17 02:00S 60°48' W 170°18'0 0.0 260 / 201014.8 4.8 5.0
2017-Feb-17 01:00S 60°48' W 170°18'0 0.0 250 / 231014.1 4.7 5.0
2017-Feb-17 00:00S 60°48' W 170°18'0 0.0 260 / 231013.3 4.2 5.0
2017-Feb-16 23:00S 60°48' W 170°18'0 0.0 260 / 211012.6 4.1 5.0
2017-Feb-16 22:00S 60°48' W 170°18'0 0.0 250 / 181011.9 3.8 5.0
2017-Feb-16 21:00S 60°48' W 170°18'0 0.0 240 / 171011.0 3.4 5.0
2017-Feb-16 20:00S 60°48' W 170°18'0 0.0 230 / 161009.9 3.3 5.0
2017-Feb-16 19:00S 60°48' W 170°18'0 0.0 230 / 201009.0 2.7 5.0
2017-Feb-16 18:00S 60°48' W 170°18'0 0.0 220 / 211007.9 2.7 5.0
2017-Feb-16 17:00S 60°48' W 170°18'0 0.0 220 / 191007.0 2.3 5.0
2017-Feb-16 16:00S 60°48' W 170°18'0 0.0 240 / 201006.1 2.4 5.0
2017-Feb-16 15:00S 60°48' W 170°18'0 0.0 220 / 201005.3 3.0 5.0
2017-Feb-16 14:00S 60°48' W 170°18'0 0.0 230 / 231004.4 3.2 5.0
2017-Feb-16 13:00S 60°48' W 170°18'0 0.0 220 / 211003.5 2.9 5.0
2017-Feb-16 12:00S 60°48' W 170°18'0 0.0 220 / 211002.3 2.9 5.0
2017-Feb-16 11:00S 60°48' W 170°18'0 0.0 230 / 191001.3 2.6 5.0
2017-Feb-16 10:00S 60°48' W 170°18'0 0.0 220 / 201000.1 3.1 5.0
2017-Feb-16 09:00S 60°48' W 170°18'0 0.0 230 / 21999.3 3.1 5.0
2017-Feb-16 08:00S 60°48' W 170°18'0 0.0 220 / 20998.2 3.3 5.0
2017-Feb-16 07:00S 60°48' W 170°18'0 0.0 220 / 20997.2 3.6 5.0
2017-Feb-16 06:00S 60°48' W 170°18'0 0.0 220 / 21996.2 3.6 5.0
2017-Feb-16 05:00S 60°48' W 170°18'0 0.0 220 / 20995.3 3.7 5.0
2017-Feb-16 04:00S 60°48' W 170°18'0 0.0 220 / 21994.3 3.9 5.1
2017-Feb-16 03:00S 60°48' W 170°18'0 0.0 220 / 20993.3 3.8 5.1
2017-Feb-16 02:00S 60°48' W 170°18'0 0.0 220 / 20992.4 3.7 5.1
2017-Feb-16 01:00S 60°48' W 170°18'1212.3 220 / 18991.4 3.8 5.1
2017-Feb-16 00:00S 61°00' W 170°12'6 6.0 220 / 15990.5 3.6 5.1
2017-Feb-15 23:00S 61°06' W 170°12'1212.3 220 / 15989.7 3.2 4.6
2017-Feb-15 22:00S 61°18' W 170°06'1212.3 220 / 15988.8 3.1 4.2
2017-Feb-15 21:00S 61°30' W 170°00'1212.0 220 / 15987.8 2.8 3.4
2017-Feb-15 20:00S 61°42' W 170°00'7 6.6 220 / 15986.8 2.9 4.1
2017-Feb-15 19:00S 61°48' W 169°54'0 0.0 220 / 18985.8 2.9 4.2
2017-Feb-15 18:00S 61°48' W 169°54'0 0.0 220 / 20985.3 2.9 4.1
2017-Feb-15 17:00S 61°48' W 169°54'0 0.0 220 / 20984.6 3.0 4.1
2017-Feb-15 16:00S 61°48' W 169°54'0 0.0 220 / 19984.1 2.8 4.1
2017-Feb-15 15:00S 61°48' W 169°54'0 0.0 220 / 20983.8 2.7 4.1
2017-Feb-15 14:00S 61°48' W 169°54'0 0.0 230 / 20983.6 2.9 4.1
2017-Feb-15 13:00S 61°48' W 169°54'0 0.0 220 / 19983.1 3.2 4.1
2017-Feb-15 12:00S 61°48' W 169°54'0 0.0 230 / 20982.6 3.2 4.1
2017-Feb-15 11:00S 61°48' W 169°54'0 0.0 230 / 20982.2 3.3 4.1
2017-Feb-15 10:00S 61°48' W 169°54'0 0.0 230 / 18981.9 3.3 4.1
2017-Feb-15 09:00S 61°48' W 169°54'0 0.0 230 / 19981.4 3.3 4.1
2017-Feb-15 08:00S 61°48' W 169°54'0 0.0 230 / 19981.1 3.3 4.1
2017-Feb-15 07:00S 61°48' W 169°54'0 0.0 230 / 19980.7 3.2 4.1
2017-Feb-15 06:00S 61°48' W 169°54'0 0.0 240 / 19980.4 3.2 4.1
2017-Feb-15 05:00S 61°48' W 169°54'0 0.0 240 / 20980.2 3.2 4.1
2017-Feb-15 04:00S 61°48' W 169°54'0 0.0 240 / 20979.9 3.2 4.1
2017-Feb-15 03:00S 61°48' W 169°54'0 0.0 240 / 20979.7 3.3 4.1
2017-Feb-15 02:00S 61°48' W 169°54'0 0.0 240 / 22979.4 3.3 4.1
2017-Feb-15 01:00S 61°48' W 169°54'7 6.6 240 / 23979.2 3.6 4.1
2017-Feb-15 00:00S 61°54' W 169°48'1313.3 240 / 24978.2 3.4 4.1
2017-Feb-14 23:00S 62°06' W 169°36'7 6.6 250 / 26977.0 3.3 4.1
2017-Feb-14 22:00S 62°12' W 169°30'0 0.0 240 / 26976.3 3.1 3.7
2017-Feb-14 21:00S 62°12' W 169°30'0 0.0 240 / 28975.8 2.9 3.8
2017-Feb-14 20:00S 62°12' W 169°30'0 0.0 240 / 29975.3 2.9 4.0
2017-Feb-14 19:00S 62°12' W 169°30'0 0.0 240 / 29974.8 2.8 4.0
2017-Feb-14 18:00S 62°12' W 169°30'0 0.0 240 / 29974.4 2.8 4.0
2017-Feb-14 17:00S 62°12' W 169°30'7 6.6 240 / 30973.8 2.7 4.0
2017-Feb-14 16:00S 62°06' W 169°36'8 8.2 240 / 28973.3 2.8 4.0
2017-Feb-14 15:00S 62°00' W 169°48'1212.3 240 / 28973.3 3.0 4.1
2017-Feb-14 14:00S 61°48' W 169°54'0 0.0 240 / 28973.3 3.4 4.2
2017-Feb-14 13:00S 61°48' W 169°54'0 0.0 240 / 27973.2 3.8 4.2
2017-Feb-14 12:00S 61°48' W 169°54'0 0.0 240 / 25973.0 3.8 4.2
2017-Feb-14 11:00S 61°48' W 169°54'0 0.0 240 / 25972.6 3.8 4.2
2017-Feb-14 10:00S 61°48' W 169°54'0 0.0 230 / 26972.0 3.8 4.2
2017-Feb-14 09:00S 61°48' W 169°54'0 0.0 230 / 26971.7 3.7 4.2
2017-Feb-14 08:00S 61°48' W 169°54'0 0.0 230 / 26971.4 3.7 4.2
2017-Feb-14 07:00S 61°48' W 169°54'   220 / 26971.0 3.7 4.2
Track history (hours):
 
Tides and Currents Weather Stations Pressure Air Temp Water Temp Dewpoint Dewpoint Depression Visibility Wind Speed Wind Dir Waves Ship Positions

Oceanographic research ship Nathaniel B. Palmer (USA)

Contact: Ethan Norris, ethan.norris.contractor@usap.gov

Detailed information on ship capabilities available from University of Delaware's Ocean Information Center and ARCUS's ALIAS (Arctic Logistics Information and Support) project.

Owner: OFFSHORE SERVICE VESSELS, GALLIANO, LA. More information available from US FCC via Universal Licensing System and Coast Guard Vessel Documentation Center.

Last reported at 2017-Feb-24 07:00 UTC. Time now 2017-Feb-24 08:22 UTC.
Position S 56°36' W 170°00'.

Type: Other ship. MMSI: 366610000.

Wind from 080 at 11 knots

Barometer 1006.4 mb
Air temperature 7.3 ° C
Water temperature 8.5 ° C

Date/timePositionNaut miles runAvg speedWind from/ knotsBaromVisibWave heightAir tempDewpointWater temp
2017-Feb-24 07:00S 56°36' W 170°00'1212.0 080 / 111006.4 7.3 8.5
2017-Feb-24 06:00S 56°24' W 170°00'6 6.0 110 / 111006.0 7.4 8.4
2017-Feb-24 05:00S 56°18' W 170°00'1212.0 130 / 101005.5 7.4 8.6
2017-Feb-24 04:00S 56°06' W 170°00'1212.0 130 / 141004.6 7.4 8.8
2017-Feb-24 03:00S 55°54' W 170°00'6 6.0 160 / 131004.0 7.6 8.9
2017-Feb-24 02:00S 56°00' W 170°00'6 6.0 160 / 131003.2 7.6 8.9
2017-Feb-24 01:00S 56°06' W 170°00'0 0.0 150 / 151002.7 8.0 8.7
2017-Feb-24 00:00S 56°06' W 170°00'0 0.0 170 / 141002.3 8.5 8.5
2017-Feb-23 23:00S 56°06' W 170°00'0 0.0 180 / 141001.5 8.3 8.5
2017-Feb-23 22:00S 56°06' W 170°00'0 0.0 170 / 181000.7 7.6 8.5
2017-Feb-23 21:00S 56°06' W 170°00'0 0.0 180 / 20999.8 7.4 8.5
2017-Feb-23 20:00S 56°06' W 170°00'0 0.0 190 / 23998.7 7.3 8.5
2017-Feb-23 19:00S 56°06' W 170°00'0 0.0 200 / 27997.8 7.2 8.5
2017-Feb-23 18:00S 56°06' W 170°00'0 0.0 210 / 28997.0 7.2 8.4
2017-Feb-23 17:00S 56°06' W 170°00'0 0.0 210 / 28996.4 7.1 8.5
2017-Feb-23 16:00S 56°06' W 170°00'0 0.0 210 / 29996.1 7.0 8.5
2017-Feb-23 15:00S 56°06' W 170°00'0 0.0 210 / 30995.8 7.1 8.5
2017-Feb-23 14:00S 56°06' W 170°00'3 3.3 220 / 30995.6 7.4 8.6
2017-Feb-23 13:00S 56°06' W 169°54'0 0.0 220 / 30995.2 7.4 8.6
2017-Feb-23 12:00S 56°06' W 169°54'0 0.0 210 / 29995.2 7.5 8.5
2017-Feb-23 11:00S 56°06' W 169°54'3 3.3 210 / 29994.7 7.8 8.5
2017-Feb-23 10:00S 56°06' W 170°00'0 0.0 220 / 24994.3 8.2 8.6
2017-Feb-23 09:00S 56°06' W 170°00'0 0.0 230 / 21994.2 8.4 8.5
2017-Feb-23 08:00S 56°06' W 170°00'0 0.0 230 / 16993.9 8.6 8.5
2017-Feb-23 07:00S 56°06' W 170°00'0 0.0 230 / 15993.5 8.5 8.6
2017-Feb-23 06:00S 56°06' W 170°00'0 0.0 230 / 13993.2 8.7 8.6
2017-Feb-23 05:00S 56°06' W 170°00'0 0.0 250 / 11993.3 8.7 8.6
2017-Feb-23 04:00S 56°06' W 170°00'1212.0 270 / 11993.2 8.7 8.7
2017-Feb-23 03:00S 56°18' W 170°00'6 6.0 270 / 12993.3 8.4 8.5
2017-Feb-23 02:00S 56°24' W 170°00'1212.0 260 / 13993.6 8.1 8.4
2017-Feb-23 01:00S 56°36' W 170°00'1212.0 280 / 17993.9 8.1 8.5
2017-Feb-23 00:00S 56°48' W 170°00'6 6.0 290 / 18994.1 8.3 7.8
2017-Feb-22 23:00S 56°54' W 170°00'1212.0 320 / 19994.4 8.4 7.9
2017-Feb-22 22:00S 57°06' W 170°00'0 0.0 340 / 19994.9 8.4 7.8
2017-Feb-22 21:00S 57°06' W 170°00'0 0.0 340 / 19996.0 8.4 7.7
2017-Feb-22 20:00S 57°06' W 170°00'0 0.0 340 / 20997.0 8.4 7.7
2017-Feb-22 19:00S 57°06' W 170°00'0 0.0 340 / 21997.9 8.3 7.7
2017-Feb-22 18:00S 57°06' W 170°00'0 0.0 340 / 20999.0 8.3 7.7
2017-Feb-22 17:00S 57°06' W 170°00'0 0.0 330 / 201000.3 8.4 7.7
2017-Feb-22 16:00S 57°06' W 170°00'0 0.0 320 / 221001.2 8.5 7.7
2017-Feb-22 15:00S 57°06' W 170°00'0 0.0 320 / 201002.3 8.6 7.7
2017-Feb-22 14:00S 57°06' W 170°00'0 0.0 330 / 191003.3 8.5 7.7
2017-Feb-22 13:00S 57°06' W 170°00'0 0.0 340 / 181004.0 8.3 7.8
2017-Feb-22 12:00S 57°06' W 170°00'0 0.0 340 / 171004.8 8.2 7.8
2017-Feb-22 11:00S 57°06' W 170°00'0 0.0 340 / 151005.8 8.2 7.8
2017-Feb-22 10:00S 57°06' W 170°00'0 0.0 350 / 151006.9 8.1 7.9
2017-Feb-22 09:00S 57°06' W 170°00'0 0.0 350 / 131007.7 8.0 7.8
2017-Feb-22 08:00S 57°06' W 170°00'0 0.0 350 / 111008.4 8.0 7.8
2017-Feb-22 07:00S 57°06' W 170°00'6 6.0 330 / 121009.0 8.0 7.9
2017-Feb-22 06:00S 57°12' W 170°00'6 6.0 320 / 111009.3 7.9 7.9
2017-Feb-22 05:00S 57°18' W 170°00'1212.0 310 / 111009.7 7.9 7.6
2017-Feb-22 04:00S 57°30' W 170°00'1212.0 290 / 111010.0 7.6 7.4
2017-Feb-22 03:00S 57°42' W 170°00'7 6.8 280 / 131010.1 7.3 7.3
2017-Feb-22 02:00S 57°48' W 170°06'6 6.0 270 / 171010.5 7.0 7.0
2017-Feb-22 01:00S 57°54' W 170°06'0 0.0 270 / 191010.8 7.4 6.9
2017-Feb-22 00:00S 57°54' W 170°06'0 0.0 270 / 191010.6 7.4 6.9
2017-Feb-21 23:00S 57°54' W 170°06'0 0.0 270 / 201010.3 7.3 6.8
2017-Feb-21 22:00S 57°54' W 170°06'0 0.0 270 / 221010.2 7.2 6.8
2017-Feb-21 21:00S 57°54' W 170°06'0 0.0 260 / 211010.0 7.2 6.8
2017-Feb-21 20:00S 57°54' W 170°06'0 0.0 260 / 221010.1 7.1 6.8
2017-Feb-21 19:00S 57°54' W 170°06'0 0.0 260 / 231009.9 7.0 6.8
2017-Feb-21 18:00S 57°54' W 170°06'0 0.0 260 / 241010.0 6.7 6.8
2017-Feb-21 17:00S 57°54' W 170°06'0 0.0 260 / 251010.0 6.5 6.8
2017-Feb-21 16:00S 57°54' W 170°06'0 0.0 260 / 271010.1 6.4 6.8
2017-Feb-21 15:00S 57°54' W 170°06'0 0.0 260 / 271010.5 6.4 6.9
2017-Feb-21 14:00S 57°54' W 170°06'0 0.0 260 / 261010.3 6.3 6.9
2017-Feb-21 13:00S 57°54' W 170°06'0 0.0 270 / 271010.5 6.2 6.9
2017-Feb-21 12:00S 57°54' W 170°06'0 0.0 270 / 281011.1 6.1 6.9
2017-Feb-21 11:00S 57°54' W 170°06'0 0.0 270 / 261011.2 6.0 6.9
2017-Feb-21 10:00S 57°54' W 170°06'6 6.0 270 / 271011.5 5.8 6.9
2017-Feb-21 09:00S 58°00' W 170°06'7 6.8 270 / 261011.4 5.6 6.8
2017-Feb-21 08:00S 58°06' W 170°00'1212.0 260 / 261011.2 5.6 6.9
2017-Feb-21 07:00S 58°18' W 170°00'6 6.0 260 / 261010.9 5.7 6.8
2017-Feb-21 06:00S 58°24' W 170°00'1212.0 260 / 261010.7 5.6 6.8
2017-Feb-21 05:00S 58°36' W 170°00'1212.0 260 / 241010.8 5.7 6.7
2017-Feb-21 04:00S 58°48' W 170°00'6 6.0 260 / 231010.9 5.8 6.5
2017-Feb-21 03:00S 58°54' W 170°00'0 0.0 260 / 261011.2 5.7 6.5
2017-Feb-21 02:00S 58°54' W 170°00'0 0.0 260 / 271012.0 5.7 6.4
2017-Feb-21 01:00S 58°54' W 170°00'0 0.0 260 / 261012.6 5.6 6.5
2017-Feb-21 00:00S 58°54' W 170°00'0 0.0 260 / 241013.1 5.4 6.5
2017-Feb-20 23:00S 58°54' W 170°00'0 0.0 250 / 231013.9 5.1 6.4
2017-Feb-20 22:00S 58°54' W 170°00'6 6.0 240 / 191013.8 5.2 6.4
2017-Feb-20 21:00S 59°00' W 170°00'0 0.0 240 / 201014.2 5.8 6.4
2017-Feb-20 20:00S 59°00' W 170°00'0 0.0 240 / 221014.2 5.3 6.4
2017-Feb-20 19:00S 59°00' W 170°00'0 0.0 230 / 211014.3 5.3 6.4
2017-Feb-20 18:00S 59°00' W 170°00'0 0.0 220 / 231014.5 5.3 6.4
2017-Feb-20 17:00S 59°00' W 170°00'0 0.0 220 / 261014.3 5.4 6.4
2017-Feb-20 16:00S 59°00' W 170°00'0 0.0 230 / 271014.3 5.5 6.4
2017-Feb-20 15:00S 59°00' W 170°00'6 6.0 220 / 251014.5 5.5 6.4
2017-Feb-20 14:00S 58°54' W 170°00'0 0.0 230 / 261014.4 5.7 6.5
2017-Feb-20 13:00S 58°54' W 170°00'0 0.0 230 / 261014.2 5.6 6.4
2017-Feb-20 12:00S 58°54' W 170°00'0 0.0 230 / 281013.8 5.8 6.5
2017-Feb-20 11:00S 58°54' W 170°00'0 0.0 230 / 271013.3 6.0 6.5
2017-Feb-20 10:00S 58°54' W 170°00'0 0.0 240 / 291013.2 6.1 6.5
2017-Feb-20 09:00S 58°54' W 170°00'0 0.0 230 / 301013.2 6.0 6.5
2017-Feb-20 08:00S 58°54' W 170°00'0 0.0 230 / 301012.8 6.3 6.5
2017-Feb-20 07:00S 58°54' W 170°00'0 0.0 250 / 281012.4 6.6 6.5
2017-Feb-20 06:00S 58°54' W 170°00'0 0.0 260 / 281012.1 6.8 6.5
2017-Feb-20 05:00S 58°54' W 170°00'0 0.0 260 / 271012.1 6.9 6.5
2017-Feb-20 04:00S 58°54' W 170°00'6 6.0 260 / 271012.3 6.8 6.5
2017-Feb-20 03:00S 59°00' W 170°00'0 0.0 270 / 231012.4 6.5 6.5
2017-Feb-20 02:00S 59°00' W 170°00'0 0.0 260 / 241012.7 6.5 6.5
2017-Feb-20 01:00S 59°00' W 170°00'0 0.0 240 / 261012.7 6.5 6.5
2017-Feb-20 00:00S 59°00' W 170°00'0 0.0 240 / 251012.6 6.4 6.5
2017-Feb-19 23:00S 59°00' W 170°00'0 0.0 250 / 241012.1 6.6 6.4
2017-Feb-19 22:00S 59°00' W 170°00'0 0.0 250 / 241011.9 6.8 6.4
2017-Feb-19 21:00S 59°00' W 170°00'6 6.0 250 / 251011.8 6.8 6.4
2017-Feb-19 20:00S 58°54' W 170°00'0 0.0 260 / 261011.6 7.0 6.4
2017-Feb-19 19:00S 58°54' W 170°00'6 6.0 270 / 271011.2 7.2 6.4
2017-Feb-19 18:00S 59°00' W 170°00'6 6.0 280 / 291011.1 6.9 6.4
2017-Feb-19 17:00S 59°06' W 170°00'1212.0 280 / 301010.8 6.8 6.4
2017-Feb-19 16:00S 59°18' W 170°00'6 6.0 290 / 291010.7 6.8 6.3
2017-Feb-19 15:00S 59°24' W 170°00'1212.0 280 / 291010.9 6.8 6.2
2017-Feb-19 14:00S 59°36' W 170°00'1212.0 280 / 291011.0 6.7 6.1
2017-Feb-19 13:00S 59°48' W 170°00'6 6.0 290 / 291011.1 6.6 6.1
2017-Feb-19 12:00S 59°54' W 170°00'0 0.0 290 / 301011.6 6.7 6.0
2017-Feb-19 11:00S 59°54' W 170°00'0 0.0 290 / 281012.4 6.8 6.0
2017-Feb-19 10:00S 59°54' W 170°00'0 0.0 290 / 291013.1 6.8 5.9
2017-Feb-19 09:00S 59°54' W 170°00'0 0.0 290 / 281013.8 6.8 5.9
2017-Feb-19 08:00S 59°54' W 170°00'0 0.0 300 / 281014.4 6.8 5.9
2017-Feb-19 07:00S 59°54' W 170°00'0 0.0 290 / 271015.0 6.7 5.9
2017-Feb-19 06:00S 59°54' W 170°00'0 0.0 290 / 271015.6 6.7 5.9
2017-Feb-19 05:00S 59°54' W 170°00'0 0.0 290 / 271016.5 6.7 5.9
2017-Feb-19 04:00S 59°54' W 170°00'0 0.0 290 / 261017.0 6.7 5.9
2017-Feb-19 03:00S 59°54' W 170°00'0 0.0 290 / 271017.2 6.7 5.9
2017-Feb-19 02:00S 59°54' W 170°00'0 0.0 290 / 271017.6 6.7 6.0
2017-Feb-19 01:00S 59°54' W 170°00'0 0.0 290 / 271017.9 6.9 6.0
2017-Feb-19 00:00S 59°54' W 170°00'0 0.0 280 / 291018.1 7.1 6.0
2017-Feb-18 23:00S 59°54' W 170°00'0 0.0 280 / 291018.2 7.0 6.0
2017-Feb-18 22:00S 59°54' W 170°00'0 0.0 280 / 291018.1 6.9 6.0
2017-Feb-18 21:00S 59°54' W 170°00'0 0.0 290 / 281017.9 6.7 6.0
2017-Feb-18 20:00S 59°54' W 170°00'0 0.0 280 / 291017.8 6.5 6.0
2017-Feb-18 19:00S 59°54' W 170°00'0 0.0 280 / 281017.7 6.5 6.0
2017-Feb-18 18:00S 59°54' W 170°00'0 0.0 290 / 271017.5 6.3 6.0
2017-Feb-18 17:00S 59°54' W 170°00'0 0.0 290 / 261017.4 6.4 6.0
2017-Feb-18 16:00S 59°54' W 170°00'0 0.0 280 / 261017.4 6.5 6.0
2017-Feb-18 15:00S 59°54' W 170°00'0 0.0 280 / 271017.5 6.6 6.0
2017-Feb-18 14:00S 59°54' W 170°00'0 0.0 280 / 301017.3 6.8 6.0
2017-Feb-18 13:00S 59°54' W 170°00'0 0.0 280 / 301016.9 6.9 6.0
2017-Feb-18 12:00S 59°54' W 170°00'0 0.0 280 / 311016.8 7.1 6.0
2017-Feb-18 11:00S 59°54' W 170°00'0 0.0 280 / 321016.4 7.2 6.0
2017-Feb-18 10:00S 59°54' W 170°00'0 0.0 290 / 321015.9 7.3 6.0
2017-Feb-18 09:00S 59°54' W 170°00'0 0.0 290 / 321015.9 7.3 6.0
2017-Feb-18 08:00S 59°54' W 170°00'0 0.0 300 / 321016.1 7.1 6.0
2017-Feb-18 07:00S 59°54' W 170°00'0 0.0 310 / 291016.5 6.6 6.0
2017-Feb-18 06:00S 59°54' W 170°00'0 0.0 310 / 271017.5 6.5 5.9
2017-Feb-18 05:00S 59°54' W 170°00'0 0.0 310 / 241018.6 6.4 5.9
2017-Feb-18 04:00S 59°54' W 170°00'0 0.0 310 / 221019.0 6.2 5.9
2017-Feb-18 03:00S 59°54' W 170°00'0 0.0 310 / 221019.8 6.2 6.0
2017-Feb-18 02:00S 59°54' W 170°00'0 0.0 300 / 241020.4 6.5 6.0
2017-Feb-18 01:00S 59°54' W 170°00'0 0.0 300 / 221020.6 6.5 6.0
2017-Feb-18 00:00S 59°54' W 170°00'0 0.0 300 / 221020.6 6.2 6.0
2017-Feb-17 23:00S 59°54' W 170°00'0 0.0 300 / 201020.7 6.1 5.9
2017-Feb-17 22:00S 59°54' W 170°00'0 0.0 290 / 181020.9 5.9 5.9
2017-Feb-17 21:00S 59°54' W 170°00'0 0.0 280 / 181020.8 6.0 5.9
2017-Feb-17 20:00S 59°54' W 170°00'0 0.0 280 / 181020.7 6.1 5.8
2017-Feb-17 19:00S 59°54' W 170°00'0 0.0 280 / 171020.2 6.1 5.8
2017-Feb-17 18:00S 59°54' W 170°00'6 6.0 270 / 191020.0 5.9 5.9
2017-Feb-17 17:00S 60°00' W 170°00'1212.4 280 / 241018.8 5.8 5.9
2017-Feb-17 16:00S 60°12' W 170°06'1212.0 290 / 231018.1 6.1 5.6
2017-Feb-17 15:00S 60°24' W 170°06'7 6.7 300 / 251017.5 6.0 5.5
2017-Feb-17 14:00S 60°30' W 170°12'1212.4 310 / 261016.9 6.0 5.5
2017-Feb-17 13:00S 60°42' W 170°18'6 6.0 310 / 261016.7 5.9 5.3
2017-Feb-17 12:00S 60°48' W 170°18'0 0.0 310 / 221017.0 5.8 5.0
2017-Feb-17 11:00S 60°48' W 170°18'0 0.0 320 / 221017.2 5.7 5.1
2017-Feb-17 06:00S 60°48' W 170°18'0 0.0 290 / 171016.7 4.5 5.0
2017-Feb-17 05:00S 60°48' W 170°18'0 0.0 280 / 161016.3 4.7 5.1
2017-Feb-17 04:00S 60°48' W 170°18'0 0.0 270 / 181016.0 5.0 5.1
2017-Feb-17 03:00S 60°48' W 170°18'0 0.0 260 / 211015.5 5.0 5.0
2017-Feb-17 02:00S 60°48' W 170°18'0 0.0 260 / 201014.8 4.8 5.0
2017-Feb-17 01:00S 60°48' W 170°18'0 0.0 250 / 231014.1 4.7 5.0
2017-Feb-17 00:00S 60°48' W 170°18'0 0.0 260 / 231013.3 4.2 5.0
2017-Feb-16 23:00S 60°48' W 170°18'0 0.0 260 / 211012.6 4.1 5.0
2017-Feb-16 22:00S 60°48' W 170°18'0 0.0 250 / 181011.9 3.8 5.0
2017-Feb-16 21:00S 60°48' W 170°18'0 0.0 240 / 171011.0 3.4 5.0
2017-Feb-16 20:00S 60°48' W 170°18'0 0.0 230 / 161009.9 3.3 5.0
2017-Feb-16 19:00S 60°48' W 170°18'0 0.0 230 / 201009.0 2.7 5.0
2017-Feb-16 18:00S 60°48' W 170°18'0 0.0 220 / 211007.9 2.7 5.0
2017-Feb-16 17:00S 60°48' W 170°18'0 0.0 220 / 191007.0 2.3 5.0
2017-Feb-16 16:00S 60°48' W 170°18'0 0.0 240 / 201006.1 2.4 5.0
2017-Feb-16 15:00S 60°48' W 170°18'0 0.0 220 / 201005.3 3.0 5.0
2017-Feb-16 14:00S 60°48' W 170°18'0 0.0 230 / 231004.4 3.2 5.0
2017-Feb-16 13:00S 60°48' W 170°18'0 0.0 220 / 211003.5 2.9 5.0
2017-Feb-16 12:00S 60°48' W 170°18'0 0.0 220 / 211002.3 2.9 5.0
2017-Feb-16 11:00S 60°48' W 170°18'0 0.0 230 / 191001.3 2.6 5.0
2017-Feb-16 10:00S 60°48' W 170°18'0 0.0 220 / 201000.1 3.1 5.0
2017-Feb-16 09:00S 60°48' W 170°18'0 0.0 230 / 21999.3 3.1 5.0
2017-Feb-16 08:00S 60°48' W 170°18'0 0.0 220 / 20998.2 3.3 5.0
2017-Feb-16 07:00S 60°48' W 170°18'0 0.0 220 / 20997.2 3.6 5.0
2017-Feb-16 06:00S 60°48' W 170°18'0 0.0 220 / 21996.2 3.6 5.0
2017-Feb-16 05:00S 60°48' W 170°18'0 0.0 220 / 20995.3 3.7 5.0
2017-Feb-16 04:00S 60°48' W 170°18'0 0.0 220 / 21994.3 3.9 5.1
2017-Feb-16 03:00S 60°48' W 170°18'0 0.0 220 / 20993.3 3.8 5.1
2017-Feb-16 02:00S 60°48' W 170°18'0 0.0 220 / 20992.4 3.7 5.1
2017-Feb-16 01:00S 60°48' W 170°18'1212.3 220 / 18991.4 3.8 5.1
2017-Feb-16 00:00S 61°00' W 170°12'6 6.0 220 / 15990.5 3.6 5.1
2017-Feb-15 23:00S 61°06' W 170°12'1212.3 220 / 15989.7 3.2 4.6
2017-Feb-15 22:00S 61°18' W 170°06'1212.3 220 / 15988.8 3.1 4.2
2017-Feb-15 21:00S 61°30' W 170°00'1212.0 220 / 15987.8 2.8 3.4
2017-Feb-15 20:00S 61°42' W 170°00'7 6.6 220 / 15986.8 2.9 4.1
2017-Feb-15 19:00S 61°48' W 169°54'0 0.0 220 / 18985.8 2.9 4.2
2017-Feb-15 18:00S 61°48' W 169°54'0 0.0 220 / 20985.3 2.9 4.1
2017-Feb-15 17:00S 61°48' W 169°54'0 0.0 220 / 20984.6 3.0 4.1
2017-Feb-15 16:00S 61°48' W 169°54'0 0.0 220 / 19984.1 2.8 4.1
2017-Feb-15 15:00S 61°48' W 169°54'0 0.0 220 / 20983.8 2.7 4.1
2017-Feb-15 14:00S 61°48' W 169°54'0 0.0 230 / 20983.6 2.9 4.1
2017-Feb-15 13:00S 61°48' W 169°54'0 0.0 220 / 19983.1 3.2 4.1
2017-Feb-15 12:00S 61°48' W 169°54'0 0.0 230 / 20982.6 3.2 4.1
2017-Feb-15 11:00S 61°48' W 169°54'0 0.0 230 / 20982.2 3.3 4.1
2017-Feb-15 10:00S 61°48' W 169°54'0 0.0 230 / 18981.9 3.3 4.1
2017-Feb-15 09:00S 61°48' W 169°54'0 0.0 230 / 19981.4 3.3 4.1
2017-Feb-15 08:00S 61°48' W 169°54'0 0.0 230 / 19981.1 3.3 4.1
2017-Feb-15 07:00S 61°48' W 169°54'0 0.0 230 / 19980.7 3.2 4.1
2017-Feb-15 06:00S 61°48' W 169°54'0 0.0 240 / 19980.4 3.2 4.1
2017-Feb-15 05:00S 61°48' W 169°54'0 0.0 240 / 20980.2 3.2 4.1
2017-Feb-15 04:00S 61°48' W 169°54'0 0.0 240 / 20979.9 3.2 4.1
2017-Feb-15 03:00S 61°48' W 169°54'0 0.0 240 / 20979.7 3.3 4.1
2017-Feb-15 02:00S 61°48' W 169°54'0 0.0 240 / 22979.4 3.3 4.1
2017-Feb-15 01:00S 61°48' W 169°54'7 6.6 240 / 23979.2 3.6 4.1
2017-Feb-15 00:00S 61°54' W 169°48'1313.3 240 / 24978.2 3.4 4.1
2017-Feb-14 23:00S 62°06' W 169°36'7 6.6 250 / 26977.0 3.3 4.1
2017-Feb-14 22:00S 62°12' W 169°30'0 0.0 240 / 26976.3 3.1 3.7
2017-Feb-14 21:00S 62°12' W 169°30'0 0.0 240 / 28975.8 2.9 3.8
2017-Feb-14 20:00S 62°12' W 169°30'0 0.0 240 / 29975.3 2.9 4.0
2017-Feb-14 19:00S 62°12' W 169°30'0 0.0 240 / 29974.8 2.8 4.0
2017-Feb-14 18:00S 62°12' W 169°30'0 0.0 240 / 29974.4 2.8 4.0
2017-Feb-14 17:00S 62°12' W 169°30'7 6.6 240 / 30973.8 2.7 4.0
2017-Feb-14 16:00S 62°06' W 169°36'8 8.2 240 / 28973.3 2.8 4.0
2017-Feb-14 15:00S 62°00' W 169°48'1212.3 240 / 28973.3 3.0 4.1
2017-Feb-14 14:00S 61°48' W 169°54'0 0.0 240 / 28973.3 3.4 4.2
2017-Feb-14 13:00S 61°48' W 169°54'0 0.0 240 / 27973.2 3.8 4.2
2017-Feb-14 12:00S 61°48' W 169°54'0 0.0 240 / 25973.0 3.8 4.2
2017-Feb-14 11:00S 61°48' W 169°54'0 0.0 240 / 25972.6 3.8 4.2
2017-Feb-14 10:00S 61°48' W 169°54'0 0.0 230 / 26972.0 3.8 4.2
2017-Feb-14 09:00S 61°48' W 169°54'0 0.0 230 / 26971.7 3.7 4.2
2017-Feb-14 08:00S 61°48' W 169°54'0 0.0 230 / 26971.4 3.7 4.2
2017-Feb-14 07:00S 61°48' W 169°54'   220 / 26971.0 3.7 4.2

Dump ship's entire track history